createdAt,value
2019-06-01T00:02:19.815Z,100798.51
2019-06-01T00:04:49.223Z,100802.84
2019-06-01T00:07:17.303Z,100799.94
2019-06-01T00:09:45.223Z,100801.20
2019-06-01T00:12:13.050Z,100805.20
2019-06-01T00:14:41.695Z,100799.52
2019-06-01T00:17:09.604Z,100802.02
2019-06-01T00:19:37.366Z,100797.91
2019-06-01T00:22:05.158Z,100797.67
2019-06-01T00:24:32.899Z,100798.47
2019-06-01T00:27:00.664Z,100796.99
2019-06-01T00:29:31.320Z,100799.98
2019-06-01T00:31:59.102Z,100797.92
2019-06-01T00:34:26.871Z,100799.97
2019-06-01T00:36:56.499Z,100798.42
2019-06-01T00:39:24.260Z,100802.59
2019-06-01T00:41:52.497Z,100802.51
2019-06-01T00:44:20.505Z,100799.02
2019-06-01T00:46:56.238Z,100800.21
2019-06-01T00:49:24.080Z,100793.73
2019-06-01T00:51:53.782Z,100794.10
2019-06-01T00:54:21.690Z,100794.90
2019-06-01T00:56:49.744Z,100793.59
2019-06-01T00:59:17.563Z,100794.74
2019-06-01T01:01:45.876Z,100799.70
2019-06-01T01:04:13.715Z,100800.06
2019-06-01T01:06:41.495Z,100801.70
2019-06-01T01:09:09.261Z,100803.05
2019-06-01T01:11:37.067Z,100803.37
2019-06-01T01:14:06.687Z,100797.88
2019-06-01T01:16:34.540Z,100797.39
2019-06-01T01:19:02.331Z,100799.72
2019-06-01T01:21:31.786Z,100799.55
2019-06-01T01:23:59.566Z,100800.04
2019-06-01T01:26:27.336Z,100803.51
2019-06-01T01:28:55.101Z,100797.04
2019-06-01T01:31:22.854Z,100798.02
2019-06-01T01:33:51.403Z,100793.03
2019-06-01T01:36:19.300Z,100798.04
2019-06-01T01:38:48.254Z,100792.90
2019-06-01T01:41:16.241Z,100799.05
2019-06-01T01:43:45.976Z,100796.05
2019-06-01T01:46:13.677Z,100800.84
2019-06-01T01:48:41.421Z,100793.39
2019-06-01T01:51:09.259Z,100803.00
2019-06-01T01:53:38.197Z,100794.02
2019-06-01T01:56:05.971Z,100793.01
2019-06-01T01:58:33.702Z,100787.04
2019-06-01T02:01:20.861Z,100783.56
2019-06-01T02:03:32.406Z,100779.88
2019-06-01T02:06:00.188Z,100781.73
2019-06-01T02:08:29.723Z,100779.09
2019-06-01T02:10:57.567Z,100776.70
2019-06-01T02:13:25.401Z,100774.97
2019-06-01T02:15:54.116Z,100776.63
2019-06-01T02:18:22.002Z,100778.41
2019-06-01T02:20:49.794Z,100775.75
2019-06-01T02:23:17.521Z,100776.70
2019-06-01T02:25:45.261Z,100769.17
2019-06-01T02:28:13.021Z,100773.10
2019-06-01T02:30:40.773Z,100775.02
2019-06-01T02:33:08.485Z,100768.62
2019-06-01T02:35:36.258Z,100773.14
2019-06-01T02:38:05.760Z,100770.89
2019-06-01T02:40:35.590Z,100776.23
2019-06-01T02:43:06.269Z,100771.89
2019-06-01T02:45:33.432Z,100780.17
2019-06-01T02:48:01.874Z,100772.22
2019-06-01T02:50:31.017Z,100772.92
2019-06-01T02:52:59.405Z,100773.64
2019-06-01T02:55:27.308Z,100773.64
2019-06-01T02:57:55.985Z,100777.02
2019-06-01T03:01:21.458Z,100774.26
2019-06-01T03:03:50.891Z,100777.52
2019-06-01T03:06:19.664Z,100777.41
2019-06-01T03:08:50.163Z,100773.93
2019-06-01T03:11:22.064Z,100781.30
2019-06-01T03:13:53.787Z,100778.48
2019-06-01T03:16:24.014Z,100779.02
2019-06-01T03:18:53.476Z,100776.13
2019-06-01T03:21:22.391Z,100778.88
2019-06-01T03:23:53.290Z,100779.75
2019-06-01T03:26:23.932Z,100776.70
2019-06-01T03:28:52.062Z,100776.73
2019-06-01T03:31:19.912Z,100780.84
2019-06-01T03:33:48.947Z,100779.53
2019-06-01T03:36:17.339Z,100783.93
2019-06-01T03:38:45.138Z,100784.14
2019-06-01T03:41:12.869Z,100778.28
2019-06-01T03:43:40.618Z,100785.33
2019-06-01T03:46:08.747Z,100786.89
2019-06-01T03:48:36.729Z,100787.38
2019-06-01T03:51:05.596Z,100784.97
2019-06-01T03:53:33.535Z,100787.48
2019-06-01T03:56:02.006Z,100776.66
2019-06-01T03:58:31.042Z,100777.30
2019-06-01T04:00:58.872Z,100778.98
2019-06-01T04:03:26.671Z,100793.17
2019-06-01T04:05:54.471Z,100788.27
2019-06-01T04:08:22.223Z,100787.05
2019-06-01T04:10:51.162Z,100786.02
2019-06-01T04:13:18.889Z,100791.23
2019-06-01T04:15:46.920Z,100791.56
2019-06-01T04:18:14.682Z,100788.52
2019-06-01T04:20:42.445Z,100792.50
2019-06-01T04:23:10.274Z,100787.89
2019-06-01T04:25:38.559Z,100790.38
2019-06-01T04:28:12.338Z,100784.91
2019-06-01T04:30:40.575Z,100787.38
2019-06-01T04:33:09.004Z,100785.64
2019-06-01T04:35:36.908Z,100789.71
2019-06-01T04:38:05.066Z,100788.52
2019-06-01T04:40:33.029Z,100792.30
2019-06-01T04:43:00.822Z,100789.13
2019-06-01T04:45:28.606Z,100794.17
2019-06-01T04:47:56.354Z,100800.83
2019-06-01T04:50:24.102Z,100798.31
2019-06-01T04:52:51.876Z,100795.63
2019-06-01T04:55:19.640Z,100802.79
2019-06-01T04:57:47.384Z,100799.97
2019-06-01T05:00:25.692Z,100803.34
2019-06-01T05:02:45.970Z,100803.95
2019-06-01T05:05:15.179Z,100804.11
2019-06-01T05:07:43.417Z,100804.30
2019-06-01T05:10:11.657Z,100807.31
2019-06-01T05:12:39.780Z,100807.98
2019-06-01T05:15:09.778Z,100803.05
2019-06-01T05:17:37.897Z,100814.28
2019-06-01T05:20:08.173Z,100810.77
2019-06-01T05:22:36.134Z,100823.46
2019-06-01T05:25:04.145Z,100825.44
2019-06-01T05:27:31.908Z,100824.94
2019-06-01T05:29:59.664Z,100832.25
2019-06-01T05:32:27.501Z,100825.08
2019-06-01T05:34:55.253Z,100831.13
2019-06-01T05:37:23.007Z,100828.70
2019-06-01T05:39:50.764Z,100830.98
2019-06-01T05:42:19.043Z,100830.12
2019-06-01T05:44:46.925Z,100827.44
2019-06-01T05:47:14.671Z,100830.06
2019-06-01T05:49:42.424Z,100824.98
2019-06-01T05:52:10.394Z,100832.14
2019-06-01T05:54:38.279Z,100829.59
2019-06-01T05:57:06.081Z,100829.85
2019-06-01T05:59:33.952Z,100833.77
2019-06-01T06:02:01.699Z,100833.45
2019-06-01T06:04:29.467Z,100835.04
2019-06-01T06:06:57.296Z,100834.73
2019-06-01T06:09:25.061Z,100832.43
2019-06-01T06:11:53.954Z,100834.02
2019-06-01T06:14:22.619Z,100841.48
2019-06-01T06:16:50.570Z,100841.81
2019-06-01T06:19:21.113Z,100839.81
2019-06-01T06:21:47.997Z,100838.93
2019-06-01T06:24:16.381Z,100848.78
2019-06-01T06:26:44.267Z,100846.20
2019-06-01T06:29:12.751Z,100844.22
2019-06-01T06:31:40.778Z,100844.79
2019-06-01T06:34:08.507Z,100843.82
2019-06-01T06:36:36.264Z,100835.98
2019-06-01T06:39:06.404Z,100834.66
2019-06-01T06:41:34.338Z,100829.52
2019-06-01T06:44:02.096Z,100823.60
2019-06-01T06:46:29.876Z,100827.23
2019-06-01T06:48:57.673Z,100828.58
2019-06-01T06:51:25.601Z,100832.77
2019-06-01T06:53:53.440Z,100830.97
2019-06-01T06:56:22.019Z,100832.84
2019-06-01T06:58:49.973Z,100837.70
2019-06-01T07:01:18.695Z,100838.02
2019-06-01T07:03:46.556Z,100836.34
2019-06-01T07:06:14.383Z,100839.56
2019-06-01T07:08:42.275Z,100841.06
2019-06-01T07:11:12.063Z,100843.83
2019-06-01T07:13:39.717Z,100835.38
2019-06-01T07:16:07.525Z,100836.00
2019-06-01T07:18:35.259Z,100837.69
2019-06-01T07:21:03.079Z,100841.84
2019-06-01T07:23:32.005Z,100831.73
2019-06-01T07:26:00.015Z,100832.44
2019-06-01T07:28:29.712Z,100838.02
2019-06-01T07:30:57.593Z,100837.50
2019-06-01T07:33:26.451Z,100843.27
2019-06-01T07:35:54.471Z,100830.02
2019-06-01T07:38:22.306Z,100824.78
2019-06-01T07:40:50.215Z,100831.41
2019-06-01T07:43:18.029Z,100830.63
2019-06-01T07:45:45.767Z,100836.58
2019-06-01T07:48:13.552Z,100829.13
2019-06-01T07:50:41.354Z,100832.06
2019-06-01T07:53:09.113Z,100830.11
2019-06-01T07:55:36.831Z,100828.06
2019-06-01T07:58:04.707Z,100831.29
2019-06-01T08:00:33.241Z,100833.89
2019-06-01T08:03:01.118Z,100835.92
2019-06-01T08:05:30.061Z,100829.95
2019-06-01T08:07:58.073Z,100834.78
2019-06-01T08:10:26.491Z,100835.25
2019-06-01T08:13:14.988Z,100838.11
2019-06-01T08:15:43.240Z,100834.84
2019-06-01T08:18:11.040Z,100828.42
2019-06-01T08:20:38.908Z,100827.17
2019-06-01T08:23:06.763Z,100828.02
2019-06-01T08:25:34.787Z,100827.66
2019-06-01T08:28:03.039Z,100816.95
2019-06-01T08:30:30.986Z,100820.52
2019-06-01T08:32:58.797Z,100814.39
2019-06-01T08:35:27.618Z,100812.55
2019-06-01T08:37:55.424Z,100810.14
2019-06-01T08:40:23.379Z,100806.31
2019-06-01T08:42:53.095Z,100803.34
2019-06-01T08:45:21.092Z,100802.22
2019-06-01T08:47:48.879Z,100802.91
2019-06-01T08:50:16.741Z,100796.37
2019-06-01T08:52:44.622Z,100797.19
2019-06-01T08:55:13.971Z,100797.42
2019-06-01T08:57:41.714Z,100798.10
2019-06-01T09:00:10.865Z,100803.70
2019-06-01T09:02:38.663Z,100799.91
2019-06-01T09:05:23.084Z,100803.18
2019-06-01T09:07:37.428Z,100792.95
2019-06-01T09:10:07.097Z,100796.08
2019-06-01T09:12:35.716Z,100794.05
2019-06-01T09:15:05.016Z,100797.47
2019-06-01T09:17:33.476Z,100802.05
2019-06-01T09:20:01.490Z,100799.16
2019-06-01T09:22:29.479Z,100795.05
2019-06-01T09:24:57.461Z,100800.34
2019-06-01T09:27:28.147Z,100800.98
2019-06-01T09:29:55.938Z,100794.72
2019-06-01T09:32:23.808Z,100791.41
2019-06-01T09:34:54.749Z,100801.07
2019-06-01T09:37:22.564Z,100803.41
2019-06-01T09:39:50.545Z,100790.11
2019-06-01T09:42:18.336Z,100796.29
2019-06-01T09:44:47.183Z,100791.92
2019-06-01T09:47:16.148Z,100798.34
2019-06-01T09:49:43.958Z,100789.52
2019-06-01T09:52:12.667Z,100786.90
2019-06-01T09:54:41.144Z,100788.34
2019-06-01T09:57:08.964Z,100788.20
2019-06-01T09:59:37.930Z,100778.97
2019-06-01T10:02:06.006Z,100779.16
2019-06-01T10:04:34.419Z,100772.34
2019-06-01T10:07:02.307Z,100778.26
2019-06-01T10:09:30.062Z,100773.58
2019-06-01T10:11:57.987Z,100776.36
2019-06-01T10:14:25.770Z,100765.98
2019-06-01T10:16:53.541Z,100764.52
2019-06-01T10:19:21.335Z,100757.53
2019-06-01T10:21:49.097Z,100760.61
2019-06-01T10:24:16.837Z,100757.46
2019-06-01T10:26:44.690Z,100759.02
2019-06-01T10:29:12.425Z,100754.55
2019-06-01T10:31:41.638Z,100757.58
2019-06-01T10:34:12.429Z,100744.56
2019-06-01T10:36:40.346Z,100744.41
2019-06-01T10:39:08.214Z,100751.69
2019-06-01T10:41:37.497Z,100749.56
2019-06-01T10:44:05.431Z,100739.98
2019-06-01T10:46:33.935Z,100751.89
2019-06-01T10:49:03.862Z,100745.70
2019-06-01T10:51:32.087Z,100745.89
2019-06-01T10:54:00.196Z,100749.49
2019-06-01T10:56:30.452Z,100736.67
2019-06-01T10:59:00.538Z,100734.41
2019-06-01T11:01:27.933Z,100727.13
2019-06-01T11:03:55.695Z,100728.14
2019-06-01T11:06:36.654Z,100722.11
2019-06-01T11:08:53.251Z,100734.75
2019-06-01T11:11:22.121Z,100725.50
2019-06-01T11:13:49.876Z,100728.33
2019-06-01T11:16:17.905Z,100721.75
2019-06-01T11:18:45.834Z,100724.78
2019-06-01T11:21:15.243Z,100723.38
2019-06-01T11:23:46.302Z,100713.88
2019-06-01T11:26:12.819Z,100721.84
2019-06-01T11:28:42.154Z,100713.99
2019-06-01T11:31:11.809Z,100712.23
2019-06-01T11:33:40.173Z,100711.42
2019-06-01T11:36:10.199Z,100705.95
2019-06-01T11:38:38.508Z,100704.74
2019-06-01T11:41:06.828Z,100696.89
2019-06-01T11:43:34.706Z,100702.44
2019-06-01T11:46:02.473Z,100696.81
2019-06-01T11:48:30.393Z,100698.53
2019-06-01T11:50:59.325Z,100697.52
2019-06-01T11:53:27.123Z,100690.89
2019-06-01T11:55:58.840Z,100682.58
2019-06-01T11:58:26.645Z,100670.89
2019-06-01T12:00:54.467Z,100670.87
2019-06-01T12:03:22.252Z,100669.70
2019-06-01T12:05:50.011Z,100671.93
2019-06-01T12:08:17.786Z,100660.86
2019-06-01T12:10:45.592Z,100660.13
2019-06-01T12:13:13.416Z,100663.67
2019-06-01T12:15:42.275Z,100657.16
2019-06-01T12:18:10.554Z,100661.20
2019-06-01T12:20:38.648Z,100651.28
2019-06-01T12:23:06.634Z,100651.13
2019-06-01T12:25:34.438Z,100645.28
2019-06-01T12:28:02.310Z,100645.68
2019-06-01T12:30:30.090Z,100639.27
2019-06-01T12:32:57.928Z,100640.91
2019-06-01T12:35:25.751Z,100636.69
2019-06-01T12:38:05.318Z,100630.40
2019-06-01T12:40:24.127Z,100633.77
2019-06-01T12:42:52.114Z,100630.45
2019-06-01T12:45:22.812Z,100631.36
2019-06-01T12:47:55.256Z,100626.36
2019-06-01T12:50:25.805Z,100616.47
2019-06-01T12:52:53.653Z,100614.59
2019-06-01T12:55:23.247Z,100608.95
2019-06-01T12:57:51.386Z,100611.59
2019-06-01T13:00:19.635Z,100608.02
2019-06-01T13:03:01.957Z,100602.10
2019-06-01T13:05:19.181Z,100605.47
2019-06-01T13:07:56.340Z,100597.91
2019-06-01T13:10:17.035Z,100598.34
2019-06-01T13:12:45.158Z,100597.23
2019-06-01T13:15:15.510Z,100598.98
2019-06-01T13:17:43.287Z,100595.31
2019-06-01T13:20:11.385Z,100592.97
2019-06-01T13:22:39.193Z,100587.03
2019-06-01T13:25:07.241Z,100581.73
2019-06-01T13:27:35.017Z,100585.45
2019-06-01T13:30:04.270Z,100584.53
2019-06-01T13:32:32.103Z,100582.42
2019-06-01T13:34:59.903Z,100573.94
2019-06-01T13:37:27.667Z,100575.20
2019-06-01T13:39:58.117Z,100565.69
2019-06-01T13:42:25.072Z,100576.49
2019-06-01T13:44:53.652Z,100571.88
2019-06-01T13:47:22.171Z,100564.14
2019-06-01T13:49:50.169Z,100561.02
2019-06-01T13:52:19.184Z,100562.45
2019-06-01T13:54:46.939Z,100563.58
2019-06-01T13:57:16.524Z,100555.18
2019-06-01T14:00:01.905Z,100554.17
2019-06-01T14:02:30.323Z,100554.00
2019-06-01T14:05:02.784Z,100543.97
2019-06-01T14:07:32.657Z,100546.70
2019-06-01T14:10:04.930Z,100539.97
2019-06-01T14:12:33.900Z,100538.00
2019-06-01T14:15:02.527Z,100531.48
2019-06-01T14:17:30.364Z,100523.89
2019-06-01T14:20:05.953Z,100533.67
2019-06-01T14:22:34.092Z,100526.52
2019-06-01T14:25:12.362Z,100530.97
2019-06-01T14:27:33.162Z,100529.16
2019-06-01T14:30:01.004Z,100530.69
2019-06-01T14:32:32.113Z,100522.03
2019-06-01T14:35:00.329Z,100523.72
2019-06-01T14:37:30.624Z,100522.38
2019-06-01T14:39:58.411Z,100514.09
2019-06-01T14:42:26.309Z,100521.64
2019-06-01T14:44:54.069Z,100521.83
2019-06-01T14:47:21.910Z,100516.23
2019-06-01T14:49:49.748Z,100513.54
2019-06-01T14:52:19.315Z,100508.80
2019-06-01T14:54:56.472Z,100507.36
2019-06-01T14:57:26.734Z,100504.97
2019-06-01T14:59:56.049Z,100498.59
2019-06-01T15:02:24.476Z,100498.65
2019-06-01T15:04:56.946Z,100502.27
2019-06-01T15:07:26.728Z,100498.76
2019-06-01T15:09:54.957Z,100491.67
2019-06-01T15:12:26.980Z,100492.04
2019-06-01T15:14:55.524Z,100483.97
2019-06-01T15:17:23.473Z,100487.56
2019-06-01T15:19:51.890Z,100484.82
2019-06-01T15:22:19.845Z,100481.77
2019-06-01T15:24:47.608Z,100484.25
2019-06-01T15:27:16.577Z,100475.23
2019-06-01T15:29:44.349Z,100477.45
2019-06-01T15:32:12.086Z,100474.45
2019-06-01T15:34:39.845Z,100467.17
2019-06-01T15:37:07.616Z,100466.60
2019-06-01T15:39:35.511Z,100466.36
2019-06-01T15:42:03.615Z,100462.83
2019-06-01T15:44:31.472Z,100468.36
2019-06-01T15:46:59.687Z,100462.36
2019-06-01T15:49:27.697Z,100462.80
2019-06-01T15:51:55.811Z,100460.52
2019-06-01T15:54:24.021Z,100467.73
2019-06-01T15:56:52.217Z,100452.05
2019-06-01T15:59:30.789Z,100456.72
2019-06-01T16:01:59.306Z,100449.97
2019-06-01T16:04:27.267Z,100448.26
2019-06-01T16:06:55.068Z,100445.56
2019-06-01T16:09:22.828Z,100437.60
2019-06-01T16:11:50.764Z,100440.37
2019-06-01T16:14:18.531Z,100438.82
2019-06-01T16:16:46.325Z,100438.25
2019-06-01T16:19:14.101Z,100439.88
2019-06-01T16:21:41.876Z,100432.16
2019-06-01T16:24:09.722Z,100439.83
2019-06-01T16:26:37.615Z,100438.28
2019-06-01T16:29:05.520Z,100437.59
2019-06-01T16:31:33.299Z,100432.16
2019-06-01T16:34:03.289Z,100435.86
2019-06-01T16:36:34.760Z,100433.39
2019-06-01T16:39:08.080Z,100427.48
2019-06-01T16:41:40.008Z,100427.73
2019-06-01T16:44:11.394Z,100432.70
2019-06-01T16:46:40.906Z,100428.73
2019-06-01T16:49:14.330Z,100424.65
2019-06-01T16:51:56.694Z,100420.02
2019-06-01T16:54:25.119Z,100419.14
2019-06-01T16:56:53.700Z,100426.00
2019-06-01T16:59:21.730Z,100416.73
2019-06-01T17:01:49.635Z,100425.76
2019-06-01T17:04:18.549Z,100421.48
2019-06-01T17:06:47.279Z,100425.32
2019-06-01T17:09:19.725Z,100428.55
2019-06-01T17:11:52.471Z,100424.66
2019-06-01T17:14:23.863Z,100421.06
2019-06-01T17:16:57.217Z,100424.28
2019-06-01T17:19:30.948Z,100420.85
2019-06-01T17:22:01.562Z,100423.59
2019-06-01T17:24:31.977Z,100427.42
2019-06-01T17:27:04.389Z,100422.20
2019-06-01T17:29:36.250Z,100424.94
2019-06-01T17:32:22.739Z,100417.91
2019-06-01T17:34:39.651Z,100415.37
2019-06-01T17:37:07.521Z,100417.86
2019-06-01T17:39:43.274Z,100415.59
2019-06-01T17:42:15.065Z,100417.04
2019-06-01T17:44:47.631Z,100418.98
2019-06-01T17:47:20.842Z,100413.26
2019-06-01T17:49:57.249Z,100412.85
2019-06-01T17:52:28.374Z,100405.56
2019-06-01T17:55:07.298Z,100414.89
2019-06-01T17:57:46.488Z,100407.02
2019-06-01T18:00:17.411Z,100411.02
2019-06-01T18:02:45.677Z,100406.16
2019-06-01T18:05:15.797Z,100408.38
2019-06-01T18:07:46.294Z,100411.06
2019-06-01T18:10:16.990Z,100412.98
2019-06-01T18:12:47.013Z,100408.84
2019-06-01T18:15:17.700Z,100409.77
2019-06-01T18:17:48.214Z,100416.80
2019-06-01T18:20:16.974Z,100405.03
2019-06-01T18:22:44.844Z,100399.13
2019-06-01T18:25:21.679Z,100403.45
2019-06-01T18:27:51.893Z,100407.72
2019-06-01T18:30:24.258Z,100405.90
2019-06-01T18:32:53.796Z,100402.69
2019-06-01T18:35:23.585Z,100405.86
2019-06-01T18:37:51.499Z,100402.98
2019-06-01T18:40:23.492Z,100404.62
2019-06-01T18:43:01.433Z,100399.40
2019-06-01T18:45:31.062Z,100402.73
2019-06-01T18:47:58.951Z,100405.69
2019-06-01T18:50:26.762Z,100398.12
2019-06-01T18:52:54.584Z,100402.41
2019-06-01T18:55:22.340Z,100400.80
2019-06-01T18:57:54.123Z,100396.89
2019-06-01T19:00:21.946Z,100398.88
2019-06-01T19:02:51.075Z,100402.00
2019-06-01T19:05:19.018Z,100399.95
2019-06-01T19:07:46.959Z,100397.85
2019-06-01T19:10:16.398Z,100400.84
2019-06-01T19:12:44.326Z,100393.06
2019-06-01T19:15:27.829Z,100399.31
2019-06-01T19:17:43.927Z,100395.22
2019-06-01T19:20:15.268Z,100391.30
2019-06-01T19:22:43.474Z,100402.35
2019-06-01T19:25:13.215Z,100397.00
2019-06-01T19:27:41.234Z,100399.31
2019-06-01T19:30:10.841Z,100397.68
2019-06-01T19:32:41.945Z,100405.83
2019-06-01T19:35:11.544Z,100407.34
2019-06-01T19:37:41.039Z,100412.09
2019-06-01T19:40:11.379Z,100414.30
2019-06-01T19:42:39.391Z,100409.19
2019-06-01T19:45:18.434Z,100415.63
2019-06-01T19:47:41.072Z,100418.48
2019-06-01T19:50:10.352Z,100416.28
2019-06-01T19:52:38.516Z,100416.93
2019-06-01T19:55:06.768Z,100425.06
2019-06-01T19:57:34.887Z,100418.80
2019-06-01T20:00:02.950Z,100419.56
2019-06-01T20:02:34.101Z,100419.92
2019-06-01T20:05:00.649Z,100417.83
2019-06-01T20:07:28.451Z,100418.30
2019-06-01T20:09:56.257Z,100416.03
2019-06-01T20:12:24.072Z,100412.69
2019-06-01T20:14:51.836Z,100414.56
2019-06-01T20:17:23.094Z,100414.03
2019-06-01T20:19:49.306Z,100423.96
2019-06-01T20:22:17.141Z,100416.78
2019-06-01T20:24:44.946Z,100411.88
2019-06-01T20:27:13.422Z,100409.02
2019-06-01T20:29:41.582Z,100416.06
2019-06-01T20:32:09.440Z,100415.90
2019-06-01T20:34:37.266Z,100414.84
2019-06-01T20:37:05.160Z,100411.57
2019-06-01T20:39:32.905Z,100408.75
2019-06-01T20:42:19.965Z,100409.17
2019-06-01T20:44:30.862Z,100415.31
2019-06-01T20:46:58.680Z,100412.52
2019-06-01T20:49:26.458Z,100416.97
2019-06-01T20:51:54.197Z,100411.83
2019-06-01T20:54:23.207Z,100410.84
2019-06-01T20:56:51.184Z,100407.06
2019-06-01T20:59:21.116Z,100404.18
2019-06-01T21:01:49.124Z,100407.23
2019-06-01T21:04:18.081Z,100407.31
2019-06-01T21:06:45.941Z,100410.11
2019-06-01T21:09:13.859Z,100413.53
2019-06-01T21:11:41.933Z,100408.95
2019-06-01T21:14:09.744Z,100411.94
2019-06-01T21:16:37.558Z,100413.94
2019-06-01T21:19:05.318Z,100417.30
2019-06-01T21:21:33.113Z,100412.45
2019-06-01T21:24:00.905Z,100415.75
2019-06-01T21:26:28.692Z,100415.38
2019-06-01T21:28:56.495Z,100414.64
2019-06-01T21:31:25.485Z,100417.63
2019-06-01T21:33:53.367Z,100422.55
2019-06-01T21:36:21.536Z,100416.50
2019-06-01T21:38:49.409Z,100414.33
2019-06-01T21:41:17.516Z,100414.34
2019-06-01T21:43:45.452Z,100416.22
2019-06-01T21:46:13.227Z,100419.56
2019-06-01T21:48:41.039Z,100423.94
2019-06-01T21:51:08.859Z,100419.78
2019-06-01T21:53:36.686Z,100416.30
2019-06-01T21:56:04.542Z,100412.28
2019-06-01T21:58:32.318Z,100415.67
2019-06-01T22:01:00.112Z,100411.67
2019-06-01T22:03:27.882Z,100404.61
2019-06-01T22:05:55.648Z,100407.74
2019-06-01T22:08:23.426Z,100411.47
2019-06-01T22:10:51.225Z,100413.06
2019-06-01T22:13:22.307Z,100415.63
2019-06-01T22:15:48.683Z,100416.20
2019-06-01T22:18:17.602Z,100408.53
2019-06-01T22:20:45.525Z,100416.48
2019-06-01T22:23:13.291Z,100409.60
2019-06-01T22:25:41.108Z,100408.66
2019-06-01T22:28:08.816Z,100400.81
2019-06-01T22:30:36.623Z,100397.95
2019-06-01T22:33:04.434Z,100395.09
2019-06-01T22:35:32.369Z,100396.12
2019-06-01T22:38:00.152Z,100393.05
2019-06-01T22:40:29.377Z,100395.00
2019-06-01T22:42:57.291Z,100393.95
2019-06-01T22:45:25.070Z,100391.70
2019-06-01T22:47:52.844Z,100392.94
2019-06-01T22:50:20.847Z,100394.57
2019-06-01T22:52:48.703Z,100389.47
2019-06-01T22:55:16.485Z,100397.48
2019-06-01T22:57:44.232Z,100387.62
2019-06-01T23:00:12.439Z,100385.84
2019-06-01T23:02:40.165Z,100384.98
2019-06-01T23:05:08.576Z,100384.98
2019-06-01T23:07:36.289Z,100385.76
2019-06-01T23:10:04.404Z,100382.41
2019-06-01T23:12:32.162Z,100387.50
2019-06-01T23:14:59.933Z,100381.70
2019-06-01T23:17:28.014Z,100378.45
2019-06-01T23:19:55.974Z,100377.73
2019-06-01T23:22:23.985Z,100375.64
2019-06-01T23:24:51.786Z,100374.85
2019-06-01T23:27:19.539Z,100377.70
2019-06-01T23:29:47.395Z,100371.12
2019-06-01T23:32:15.146Z,100377.80
2019-06-01T23:34:44.306Z,100377.75
2019-06-01T23:37:12.070Z,100374.26
2019-06-01T23:39:40.009Z,100369.95
2019-06-01T23:42:07.891Z,100368.00
2019-06-01T23:44:35.625Z,100372.67
2019-06-01T23:47:03.394Z,100363.16
2019-06-01T23:49:31.397Z,100356.61
2019-06-01T23:51:59.269Z,100358.47
2019-06-01T23:54:27.653Z,100361.09
2019-06-01T23:56:55.587Z,100356.22
2019-06-01T23:59:24.045Z,100356.97
